Redmond, Oregon
Current Conditions -  °F | °C
As of 11:56 AM on Friday 24 Oct 2014 (Local Time) from KRDM Reporting Station
Light Rain Light Rain  
Wind Chill: 10°   Ceiling: 5500
Heat Index: 10°   Visibility: 10mi
Dew Point:   Wind: 8mph
Humidity: 77%   Direction: 140°SE
Pressure: 29.99"   Gusts: NA
Location:  44.27°N, 121.17°W
Report Text: KRDM 241856Z 14007KT 10SM -RA FEW019 BKN055 OVC070 10/06 A2999 RMK AO2 RAE09B52 SLP153 P0000 T01000061
Loading
Personal Weather Stations






























Interactive Weather Map
Tropical Storm Tracking
New forecast layout! Learn more

10-Day Weather Forecast

Advertisements
Track Severe Weather on mobile